createdAt,value
2022-08-04T00:02:11.233Z,60.20
2022-08-04T00:05:05.535Z,60.10
2022-08-04T00:08:01.922Z,60.40
2022-08-04T00:10:54.841Z,61.40
2022-08-04T00:13:59.807Z,61.90
2022-08-04T00:16:51.213Z,62.30
2022-08-04T00:19:44.927Z,62.60
2022-08-04T00:22:33.180Z,63.20
2022-08-04T00:25:19.857Z,63.50
2022-08-04T00:28:06.555Z,64.20
2022-08-04T00:30:53.692Z,63.70
2022-08-04T00:33:40.870Z,63.50
2022-08-04T00:36:30.617Z,64.00
2022-08-04T00:39:19.754Z,63.40
2022-08-04T00:42:18.349Z,63.40
2022-08-04T00:45:29.586Z,64.40
2022-08-04T00:48:34.102Z,63.50
2022-08-04T00:51:48.331Z,64.20
2022-08-04T00:55:21.264Z,65.20
2022-08-04T00:58:30.000Z,65.40
2022-08-04T01:01:37.807Z,65.80
2022-08-04T01:05:02.320Z,65.30
2022-08-04T01:08:25.465Z,65.90
2022-08-04T01:11:14.177Z,66.00
2022-08-04T01:14:19.869Z,67.40
2022-08-04T01:17:37.647Z,67.50
2022-08-04T01:20:32.753Z,68.30
2022-08-04T01:24:09.970Z,68.30
2022-08-04T01:27:09.525Z,69.00
2022-08-04T01:29:58.901Z,68.90
2022-08-04T01:32:53.368Z,68.80
2022-08-04T01:35:48.948Z,69.30
2022-08-04T01:38:37.494Z,69.30
2022-08-04T01:41:32.495Z,69.20
2022-08-04T01:44:20.035Z,68.90
2022-08-04T01:47:06.968Z,68.50
2022-08-04T01:50:00.192Z,68.40
2022-08-04T01:52:50.988Z,69.30
2022-08-04T01:55:55.012Z,68.90
2022-08-04T01:58:43.772Z,69.60
2022-08-04T02:01:37.301Z,69.00
2022-08-04T02:04:23.862Z,69.00
2022-08-04T02:07:32.178Z,69.50
2022-08-04T02:10:28.372Z,69.60
2022-08-04T02:13:49.887Z,70.20
2022-08-04T02:16:44.265Z,70.80
2022-08-04T02:19:42.230Z,70.80
2022-08-04T02:22:29.492Z,70.20
2022-08-04T02:25:24.692Z,70.30
2022-08-04T02:28:24.918Z,70.60
2022-08-04T02:31:23.573Z,70.40
2022-08-04T02:34:26.023Z,70.10
2022-08-04T02:37:12.553Z,69.60
2022-08-04T02:40:01.561Z,69.70
2022-08-04T02:42:47.722Z,69.50
2022-08-04T02:45:37.207Z,69.20
2022-08-04T02:48:31.086Z,70.10
2022-08-04T02:51:25.295Z,71.30
2022-08-04T02:54:11.372Z,72.20
2022-08-04T02:56:59.935Z,72.00
2022-08-04T02:59:54.729Z,71.30
2022-08-04T03:03:01.947Z,71.40
2022-08-04T03:06:10.348Z,70.90
2022-08-04T03:09:09.512Z,71.20
2022-08-04T03:12:26.770Z,72.10
2022-08-04T03:15:31.093Z,72.60
2022-08-04T03:18:38.143Z,72.50
2022-08-04T03:21:53.799Z,72.80
2022-08-04T03:24:54.913Z,73.00
2022-08-04T03:27:52.180Z,73.30
2022-08-04T03:30:56.383Z,72.90
2022-08-04T03:33:53.546Z,72.30
2022-08-04T03:37:16.362Z,72.20
2022-08-04T03:40:28.240Z,71.60
2022-08-04T03:43:57.115Z,71.60
2022-08-04T03:47:22.336Z,71.70
2022-08-04T03:50:42.145Z,72.40
2022-08-04T03:53:58.189Z,72.30
2022-08-04T03:57:08.813Z,73.40
2022-08-04T03:59:57.943Z,73.30
2022-08-04T04:03:02.781Z,73.40
2022-08-04T04:06:20.805Z,73.50
2022-08-04T04:09:20.543Z,74.00
2022-08-04T04:12:19.949Z,74.30
2022-08-04T04:15:24.396Z,75.10
2022-08-04T04:18:35.393Z,74.80
2022-08-04T04:21:28.544Z,76.00
2022-08-04T04:24:46.688Z,76.20
2022-08-04T04:27:38.069Z,76.50
2022-08-04T04:30:46.071Z,76.10
2022-08-04T04:33:49.667Z,76.70
2022-08-04T04:36:57.526Z,77.30
2022-08-04T04:39:57.947Z,76.70
2022-08-04T04:42:54.852Z,76.30
2022-08-04T04:46:17.837Z,76.70
2022-08-04T04:49:34.881Z,75.90
2022-08-04T04:52:32.548Z,76.10
2022-08-04T04:55:26.844Z,76.10
2022-08-04T04:58:16.898Z,76.00
2022-08-04T05:01:21.203Z,76.00
2022-08-04T05:04:25.467Z,75.40
2022-08-04T05:07:20.456Z,75.10
2022-08-04T05:10:21.306Z,75.10
2022-08-04T05:14:38.593Z,75.50
2022-08-04T05:16:47.946Z,75.30
2022-08-04T05:19:55.581Z,75.10
2022-08-04T05:22:56.622Z,74.90
2022-08-04T05:25:59.339Z,74.80
2022-08-04T05:28:58.236Z,75.30
2022-08-04T05:31:51.019Z,75.00
2022-08-04T05:34:48.047Z,74.10
2022-08-04T05:37:38.363Z,75.40
2022-08-04T05:40:26.777Z,75.50
2022-08-04T05:43:14.334Z,76.20
2022-08-04T05:46:01.016Z,75.10
2022-08-04T05:48:47.737Z,74.40
2022-08-04T05:51:35.147Z,75.00
2022-08-04T05:54:23.111Z,73.70
2022-08-04T05:57:10.042Z,73.20
2022-08-04T05:59:58.884Z,73.40
2022-08-04T06:02:47.959Z,72.40
2022-08-04T06:05:34.517Z,72.20
2022-08-04T06:08:20.619Z,72.50
2022-08-04T06:11:08.814Z,70.90
2022-08-04T06:14:03.316Z,70.60
2022-08-04T06:16:51.679Z,70.70
2022-08-04T06:19:59.592Z,70.00
2022-08-04T06:22:53.929Z,69.80
2022-08-04T06:25:47.507Z,69.30
2022-08-04T06:28:35.371Z,68.60
2022-08-04T06:32:31.377Z,68.30
2022-08-04T06:34:48.573Z,68.00
2022-08-04T06:37:42.266Z,67.60
2022-08-04T06:40:33.379Z,66.30
2022-08-04T06:43:21.140Z,65.70
2022-08-04T06:46:08.512Z,64.80
2022-08-04T06:48:55.483Z,63.40
2022-08-04T06:51:48.997Z,63.00
2022-08-04T06:54:35.071Z,62.50
2022-08-04T06:57:24.876Z,63.30
2022-08-04T07:00:13.926Z,63.70
2022-08-04T07:03:02.368Z,63.10
2022-08-04T07:05:49.569Z,62.90
2022-08-04T07:08:36.671Z,60.20
2022-08-04T07:11:23.768Z,60.30
2022-08-04T07:14:10.335Z,58.90
2022-08-04T07:16:57.043Z,59.40
2022-08-04T07:19:44.521Z,59.30
2022-08-04T07:22:30.605Z,58.60
2022-08-04T07:25:16.676Z,58.60
2022-08-04T07:28:02.597Z,58.70
2022-08-04T07:30:50.408Z,57.70
2022-08-04T07:33:36.837Z,57.40
2022-08-04T07:36:22.890Z,57.70
2022-08-04T07:39:28.417Z,57.30
2022-08-04T07:42:19.805Z,56.50
2022-08-04T07:45:06.664Z,56.70
2022-08-04T07:48:05.357Z,54.90
2022-08-04T07:50:52.961Z,54.90
2022-08-04T07:53:53.138Z,55.80
2022-08-04T07:56:43.431Z,55.40
2022-08-04T07:59:29.424Z,56.80
2022-08-04T08:02:19.082Z,56.00
2022-08-04T08:05:04.849Z,55.80
2022-08-04T08:07:54.436Z,55.30
2022-08-04T08:10:47.217Z,55.80
2022-08-04T08:13:34.030Z,53.20
2022-08-04T08:16:21.189Z,51.70
2022-08-04T08:19:11.429Z,50.90
2022-08-04T08:22:00.113Z,51.70
2022-08-04T08:24:46.639Z,49.90
2022-08-04T08:27:32.523Z,48.70
2022-08-04T08:30:18.114Z,48.70
2022-08-04T08:33:09.690Z,49.50
2022-08-04T08:36:23.246Z,47.20
2022-08-04T08:39:28.833Z,46.70
2022-08-04T08:44:00.471Z,47.20
2022-08-04T08:46:17.428Z,47.60
2022-08-04T08:50:01.902Z,48.30
2022-08-04T08:53:01.400Z,47.40
2022-08-04T08:56:17.384Z,46.90
2022-08-04T08:59:28.209Z,48.70
2022-08-04T09:02:32.178Z,46.10
2022-08-04T09:05:29.043Z,43.00
2022-08-04T09:08:46.620Z,43.80
2022-08-04T09:11:47.976Z,43.80
2022-08-04T09:14:51.816Z,43.30
2022-08-04T09:17:43.233Z,42.10
2022-08-04T09:20:35.951Z,42.30
2022-08-04T09:23:40.103Z,44.00
2022-08-04T09:27:00.219Z,42.90
2022-08-04T09:29:56.689Z,43.80
2022-08-04T09:32:50.299Z,44.50
2022-08-04T09:35:59.585Z,43.90
2022-08-04T09:38:59.129Z,42.30
2022-08-04T09:42:00.864Z,43.50
2022-08-04T09:45:01.987Z,42.00
2022-08-04T09:48:05.384Z,40.40
2022-08-04T09:50:59.155Z,41.50
2022-08-04T09:54:30.707Z,39.90
2022-08-04T09:57:36.291Z,40.80
2022-08-04T10:00:38.463Z,40.30
2022-08-04T10:03:36.456Z,39.20
2022-08-04T10:06:35.850Z,40.20
2022-08-04T10:09:21.657Z,39.80
2022-08-04T10:12:25.838Z,38.50
2022-08-04T10:15:20.254Z,38.20
2022-08-04T10:18:33.553Z,37.30
2022-08-04T10:21:37.668Z,36.50
2022-08-04T10:24:54.092Z,37.30
2022-08-04T10:27:54.919Z,36.60
2022-08-04T10:30:50.077Z,36.70
2022-08-04T10:34:02.288Z,35.80
2022-08-04T10:36:54.321Z,36.90
2022-08-04T10:40:12.006Z,34.90
2022-08-04T10:43:02.168Z,33.10
2022-08-04T10:46:05.333Z,34.20
2022-08-04T10:49:04.998Z,32.70
2022-08-04T10:52:03.355Z,32.30
2022-08-04T10:54:55.278Z,32.10
2022-08-04T10:58:09.644Z,30.00
2022-08-04T11:00:59.751Z,31.60
2022-08-04T11:03:56.727Z,31.20
2022-08-04T11:06:44.417Z,31.70
2022-08-04T11:09:31.846Z,31.90
2022-08-04T11:12:23.438Z,29.30
2022-08-04T11:15:38.247Z,28.00
2022-08-04T11:18:29.653Z,27.30
2022-08-04T11:21:21.504Z,29.00
2022-08-04T11:24:33.649Z,28.70
2022-08-04T11:27:49.397Z,29.30
2022-08-04T11:30:59.318Z,28.90
2022-08-04T11:33:55.353Z,28.50
2022-08-04T11:36:50.238Z,27.60
2022-08-04T11:39:42.503Z,27.60
2022-08-04T11:42:31.975Z,26.50
2022-08-04T11:45:24.746Z,25.80
2022-08-04T11:48:23.155Z,25.50
2022-08-04T11:51:09.476Z,26.90
2022-08-04T11:53:56.835Z,25.80
2022-08-04T11:56:42.972Z,24.80
2022-08-04T11:59:30.726Z,26.40
2022-08-04T12:02:47.953Z,26.50
2022-08-04T12:05:41.686Z,27.00
2022-08-04T12:08:52.606Z,26.30
2022-08-04T12:11:56.127Z,25.00
2022-08-04T12:14:51.766Z,26.10
2022-08-04T12:18:02.546Z,27.10
2022-08-04T12:21:00.695Z,25.20
2022-08-04T12:23:49.521Z,24.90
2022-08-04T12:26:54.036Z,24.20
2022-08-04T12:29:41.196Z,25.20
2022-08-04T12:32:48.265Z,23.90
2022-08-04T12:36:10.632Z,25.00
2022-08-04T12:38:56.740Z,25.70
2022-08-04T12:42:01.330Z,25.30
2022-08-04T12:44:54.365Z,24.50
2022-08-04T12:47:41.517Z,25.50
2022-08-04T12:50:28.689Z,26.80
2022-08-04T12:53:19.374Z,25.60
2022-08-04T12:56:26.599Z,25.60
2022-08-04T12:59:13.518Z,24.50
2022-08-04T13:02:07.248Z,24.00
2022-08-04T13:05:02.638Z,24.70
2022-08-04T13:07:51.750Z,24.30
2022-08-04T13:10:44.971Z,25.00
2022-08-04T13:13:35.750Z,24.00
2022-08-04T13:16:30.272Z,23.90
2022-08-04T13:19:16.268Z,24.20
2022-08-04T13:22:05.574Z,24.70
2022-08-04T13:24:56.959Z,23.20
2022-08-04T13:28:00.957Z,23.40
2022-08-04T13:30:53.008Z,23.70
2022-08-04T13:33:42.276Z,23.90
2022-08-04T13:36:30.165Z,23.60
2022-08-04T13:39:21.824Z,23.20
2022-08-04T13:42:10.854Z,23.50
2022-08-04T13:44:59.803Z,24.00
2022-08-04T13:47:48.511Z,24.20
2022-08-04T13:50:35.324Z,23.20
2022-08-04T13:53:22.013Z,24.20
2022-08-04T13:56:10.678Z,24.30
2022-08-04T13:59:01.379Z,24.70
2022-08-04T14:01:59.075Z,24.00
2022-08-04T14:04:54.409Z,23.20
2022-08-04T14:07:54.202Z,26.20
2022-08-04T14:10:40.243Z,24.90
2022-08-04T14:13:41.239Z,25.10
2022-08-04T14:16:27.879Z,23.60
2022-08-04T14:19:13.709Z,22.90
2022-08-04T14:21:59.915Z,22.70
2022-08-04T14:24:59.374Z,22.60
2022-08-04T14:27:49.624Z,23.70
2022-08-04T14:30:37.645Z,23.30
2022-08-04T14:34:02.230Z,23.60
2022-08-04T14:37:13.067Z,24.80
2022-08-04T14:40:17.785Z,24.70
2022-08-04T14:42:56.564Z,23.80
2022-08-04T14:45:54.275Z,22.60
2022-08-04T14:49:10.231Z,22.50
2022-08-04T14:52:00.082Z,24.20
2022-08-04T14:54:46.065Z,23.50
2022-08-04T14:58:35.898Z,24.30
2022-08-04T15:00:43.131Z,23.90
2022-08-04T15:03:30.616Z,24.00
2022-08-04T15:06:21.586Z,24.30
2022-08-04T15:09:10.165Z,24.40
2022-08-04T15:11:56.044Z,25.20
2022-08-04T15:14:44.557Z,24.00
2022-08-04T15:17:31.278Z,24.80
2022-08-04T15:20:17.730Z,23.90
2022-08-04T15:23:07.375Z,23.80
2022-08-04T15:26:02.500Z,24.00
2022-08-04T15:28:54.441Z,25.10
2022-08-04T15:32:06.779Z,24.40
2022-08-04T15:34:51.093Z,24.10
2022-08-04T15:38:03.402Z,24.10
2022-08-04T15:40:55.774Z,25.40
2022-08-04T15:44:00.455Z,24.70
2022-08-04T15:46:52.186Z,25.20
2022-08-04T15:49:39.993Z,25.30
2022-08-04T15:52:31.201Z,25.40
2022-08-04T15:55:36.977Z,25.20
2022-08-04T15:58:23.733Z,25.80
2022-08-04T16:01:16.189Z,25.20
2022-08-04T16:04:21.523Z,24.10
2022-08-04T16:07:07.024Z,25.90
2022-08-04T16:09:52.785Z,25.30
2022-08-04T16:12:55.605Z,26.00
2022-08-04T16:15:41.816Z,27.00
2022-08-04T16:18:30.779Z,25.70
2022-08-04T16:21:20.788Z,25.50
2022-08-04T16:24:29.701Z,27.80
2022-08-04T16:27:34.766Z,28.50
2022-08-04T16:30:20.619Z,28.80
2022-08-04T16:33:09.010Z,29.60
2022-08-04T16:36:08.002Z,29.10
2022-08-04T16:39:05.040Z,29.50
2022-08-04T16:41:50.930Z,29.70
2022-08-04T16:44:53.235Z,28.70
2022-08-04T16:47:48.517Z,28.80
2022-08-04T16:50:46.063Z,28.40
2022-08-04T16:54:02.597Z,30.30
2022-08-04T16:56:47.132Z,29.00
2022-08-04T16:59:32.892Z,28.60
2022-08-04T17:02:25.261Z,29.90
2022-08-04T17:05:38.729Z,31.30
2022-08-04T17:08:29.981Z,31.60
2022-08-04T17:11:17.396Z,32.60
2022-08-04T17:14:05.908Z,32.40
2022-08-04T17:16:53.156Z,31.30
2022-08-04T17:19:38.986Z,29.90
2022-08-04T17:22:24.744Z,33.00
2022-08-04T17:25:11.338Z,32.70
2022-08-04T17:28:20.527Z,32.60
2022-08-04T17:31:11.700Z,31.30
2022-08-04T17:34:00.828Z,32.10
2022-08-04T17:36:48.439Z,32.80
2022-08-04T17:39:38.133Z,32.60
2022-08-04T17:42:33.105Z,32.90
2022-08-04T17:45:50.658Z,39.00
2022-08-04T17:48:25.229Z,36.40
2022-08-04T17:51:17.459Z,34.50
2022-08-04T17:54:05.003Z,34.50
2022-08-04T17:56:53.512Z,36.40
2022-08-04T17:59:52.249Z,36.60
2022-08-04T18:02:53.543Z,35.40
2022-08-04T18:06:02.106Z,35.00
2022-08-04T18:08:51.832Z,33.50
2022-08-04T18:11:43.118Z,35.40
2022-08-04T18:14:40.829Z,35.80
2022-08-04T18:18:22.124Z,37.40
2022-08-04T18:20:41.605Z,40.20
2022-08-04T18:23:32.160Z,38.90
2022-08-04T18:26:18.378Z,43.10
2022-08-04T18:29:21.781Z,44.00
2022-08-04T18:32:16.063Z,42.40
2022-08-04T18:35:07.456Z,40.80
2022-08-04T18:38:05.865Z,41.80
2022-08-04T18:40:54.618Z,39.70
2022-08-04T18:43:41.316Z,39.60
2022-08-04T18:46:27.415Z,40.70
2022-08-04T18:51:01.836Z,38.10
2022-08-04T18:52:24.161Z,38.30
2022-08-04T18:55:09.968Z,39.00
2022-08-04T18:58:01.004Z,39.90
2022-08-04T19:00:52.035Z,39.90
2022-08-04T19:03:39.324Z,40.40
2022-08-04T19:06:33.481Z,40.80
2022-08-04T19:09:21.156Z,41.20
2022-08-04T19:12:08.752Z,42.50
2022-08-04T19:15:08.716Z,41.60
2022-08-04T19:18:00.146Z,42.70
2022-08-04T19:20:46.965Z,42.90
2022-08-04T19:24:28.101Z,42.90
2022-08-04T19:26:41.827Z,43.50
2022-08-04T19:29:41.192Z,43.10
2022-08-04T19:32:29.118Z,43.70
2022-08-04T19:35:17.016Z,44.30
2022-08-04T19:38:03.733Z,45.90
2022-08-04T19:40:52.582Z,45.30
2022-08-04T19:43:43.625Z,46.20
2022-08-04T19:46:31.646Z,46.00
2022-08-04T19:50:05.113Z,45.50
2022-08-04T19:52:33.395Z,44.50
2022-08-04T19:55:37.614Z,45.10
2022-08-04T19:58:25.969Z,45.50
2022-08-04T20:04:20.698Z,45.80
2022-08-04T20:07:11.065Z,46.20
2022-08-04T20:10:00.243Z,46.30
2022-08-04T20:12:55.621Z,45.20
2022-08-04T20:15:55.255Z,45.80
2022-08-04T20:18:55.461Z,45.30
2022-08-04T20:21:54.990Z,45.30
2022-08-04T20:24:49.194Z,45.50
2022-08-04T20:27:51.770Z,47.60
2022-08-04T20:30:47.616Z,47.10
2022-08-04T20:33:35.522Z,48.20
2022-08-04T20:36:23.524Z,47.40
2022-08-04T20:39:09.983Z,47.90
2022-08-04T20:41:55.946Z,49.00
2022-08-04T20:44:46.827Z,48.50
2022-08-04T20:47:35.680Z,48.60
2022-08-04T20:50:30.061Z,47.50
2022-08-04T20:53:17.777Z,47.40
2022-08-04T20:56:04.586Z,47.80
2022-08-04T20:58:52.855Z,46.30
2022-08-04T21:01:39.258Z,46.60
2022-08-04T21:04:35.591Z,48.90
2022-08-04T21:07:25.320Z,48.90
2022-08-04T21:10:11.643Z,48.70
2022-08-04T21:12:59.771Z,49.10
2022-08-04T21:15:58.614Z,49.50
2022-08-04T21:18:47.092Z,49.00
2022-08-04T21:21:37.460Z,49.50
2022-08-04T21:24:26.329Z,49.70
2022-08-04T21:27:14.116Z,50.90
2022-08-04T21:30:00.143Z,51.30
2022-08-04T21:32:46.445Z,50.70
2022-08-04T21:35:39.188Z,51.00
2022-08-04T21:38:28.318Z,51.60
2022-08-04T21:41:24.461Z,52.20
2022-08-04T21:44:11.793Z,52.30
2022-08-04T21:46:58.072Z,51.30
2022-08-04T21:49:56.493Z,50.60
2022-08-04T21:52:43.044Z,50.10
2022-08-04T21:56:05.581Z,49.70
2022-08-04T21:58:38.100Z,49.50
2022-08-04T22:01:52.469Z,50.10
2022-08-04T22:04:31.088Z,51.50
2022-08-04T22:07:17.408Z,50.60
2022-08-04T22:10:04.971Z,51.20
2022-08-04T22:12:51.983Z,51.00
2022-08-04T22:16:04.049Z,50.70
2022-08-04T22:18:50.877Z,50.70
2022-08-04T22:21:46.620Z,51.00
2022-08-04T22:24:34.295Z,50.80
2022-08-04T22:27:39.890Z,50.80
2022-08-04T22:30:29.165Z,50.70
2022-08-04T22:33:19.656Z,51.60
2022-08-04T22:36:09.030Z,52.50
2022-08-04T22:39:04.469Z,52.10
2022-08-04T22:42:04.522Z,52.30
2022-08-04T22:44:50.746Z,52.40
2022-08-04T22:47:36.960Z,52.40
2022-08-04T22:50:27.008Z,52.40
2022-08-04T22:53:17.925Z,51.70
2022-08-04T22:56:10.486Z,52.10
2022-08-04T22:58:56.768Z,52.00
2022-08-04T23:01:58.892Z,51.30
2022-08-04T23:04:49.958Z,51.10
2022-08-04T23:07:47.615Z,51.60
2022-08-04T23:10:35.439Z,50.80
2022-08-04T23:13:22.224Z,50.80
2022-08-04T23:16:09.996Z,50.80
2022-08-04T23:18:56.747Z,52.60
2022-08-04T23:21:47.631Z,53.40
2022-08-04T23:24:47.813Z,53.20
2022-08-04T23:27:40.346Z,53.50
2022-08-04T23:30:30.486Z,53.60
2022-08-04T23:33:16.447Z,53.90
2022-08-04T23:36:02.450Z,54.60
2022-08-04T23:38:49.680Z,54.50
2022-08-04T23:41:54.016Z,55.70
2022-08-04T23:44:46.025Z,55.00
2022-08-04T23:48:19.041Z,55.20
2022-08-04T23:50:37.885Z,55.20
2022-08-04T23:53:25.752Z,54.80
2022-08-04T23:56:19.714Z,54.70
2022-08-04T23:59:18.042Z,54.80
